Time;durP1;ratioP1;P1;durP2;ratioP2;P2;SDS_P1;SDS_P2;PMS_P1;PMS_P2;Temp;Humidity;BMP_temperature;BMP_pressure;BME280_temperature;BME280_humidity;BME280_pressure;Samples;Min_cycle;Max_cycle;Signal;HPM_P1;HPM_P2
2023/05/05 00:00:04;;;;;;;9.73;8.20;;;15.90;99.90;;;;;;4974025;28;20507;-69
2023/05/05 00:02:30;;;;;;;10.13;7.80;;;15.80;99.90;;;;;;4974206;28;20184;-70
2023/05/05 00:04:55;;;;;;;8.87;8.10;;;15.70;99.90;;;;;;4974182;28;20412;-69
2023/05/05 00:07:21;;;;;;;9.23;8.20;;;15.70;99.90;;;;;;4973838;28;20565;-69
2023/05/05 00:09:46;;;;;;;8.77;8.03;;;15.70;99.90;;;;;;4973682;28;20169;-70
2023/05/05 00:12:12;;;;;;;8.80;8.10;;;15.60;99.90;;;;;;4973946;28;20275;-68
2023/05/05 00:14:37;;;;;;;8.40;7.63;;;15.60;99.90;;;;;;4973919;28;20183;-69
2023/05/05 00:17:03;;;;;;;17.80;16.10;;;15.60;99.90;;;;;;4973753;28;20212;-70
2023/05/05 00:19:28;;;;;;;12.10;11.03;;;15.60;99.90;;;;;;4973787;28;20187;-68
2023/05/05 00:21:54;;;;;;;9.70;8.90;;;15.50;99.90;;;;;;4973853;28;20176;-69
2023/05/05 00:24:19;;;;;;;10.10;8.60;;;15.60;99.90;;;;;;4973739;28;20274;-70
2023/05/05 00:26:45;;;;;;;8.57;7.77;;;15.50;99.90;;;;;;4973589;28;20224;-69
2023/05/05 00:29:10;;;;;;;9.00;8.10;;;15.50;99.90;;;;;;4973347;28;20494;-69
2023/05/05 00:31:36;;;;;;;9.07;8.10;;;15.40;99.90;;;;;;4973696;28;20219;-70
2023/05/05 00:34:02;;;;;;;9.40;8.67;;;15.40;99.90;;;;;;4973769;28;20670;-68
2023/05/05 00:36:27;;;;;;;8.40;7.60;;;15.50;99.90;;;;;;4973491;28;20208;-69
2023/05/05 00:38:53;;;;;;;9.67;8.20;;;15.50;99.90;;;;;;4973080;28;20195;-70
2023/05/05 00:41:18;;;;;;;8.73;8.03;;;15.50;99.90;;;;;;4973490;28;20255;-69
2023/05/05 00:43:44;;;;;;;9.23;7.30;;;15.50;99.90;;;;;;4973477;28;20203;-70
2023/05/05 00:46:22;;;;;;;7.63;7.03;;;15.40;99.90;;;;;;4973406;28;20283;-69
2023/05/05 00:48:47;;;;;;;8.30;7.70;;;15.50;99.90;;;;;;4973267;28;20545;-69
2023/05/05 00:51:15;;;;;;;8.83;8.00;;;15.50;99.90;;;;;;4973071;28;20503;-69
2023/05/05 00:53:43;;;;;;;9.10;8.30;;;15.50;99.90;;;;;;4973664;28;20191;-69
2023/05/05 00:56:13;;;;;;;10.30;8.60;;;15.50;99.90;;;;;;4973272;28;20440;-69
2023/05/05 00:58:42;;;;;;;7.87;7.27;;;15.50;99.90;;;;;;4973152;28;20423;-71
2023/05/05 01:01:09;;;;;;;8.10;7.40;;;15.50;99.90;;;;;;4973301;28;20474;-69
2023/05/05 01:03:37;;;;;;;11.77;8.13;;;15.50;99.90;;;;;;4973228;28;20456;-71
2023/05/05 01:06:41;;;;;;;7.97;7.37;;;15.50;99.90;;;;;;4972975;28;20502;-68
2023/05/05 01:09:25;;;;;;;8.00;7.20;;;15.40;99.90;;;;;;4973293;28;20490;-69
2023/05/05 01:11:59;;;;;;;7.70;7.10;;;15.40;99.90;;;;;;4973302;28;20410;-69
2023/05/05 01:14:39;;;;;;;9.13;8.43;;;15.30;99.90;;;;;;4973229;28;20411;-69
2023/05/05 01:17:20;;;;;;;8.00;7.40;;;15.30;99.90;;;;;;4973030;28;20824;-68
2023/05/05 01:19:57;;;;;;;9.50;8.60;;;15.20;99.90;;;;;;4972972;28;20489;-69
2023/05/05 01:22:32;;;;;;;10.90;8.23;;;15.20;99.90;;;;;;4973112;28;20457;-69
2023/05/05 01:25:16;;;;;;;8.50;7.70;;;15.20;99.90;;;;;;4973127;28;20427;-69
2023/05/05 01:28:01;;;;;;;7.90;7.20;;;15.10;99.90;;;;;;4973106;28;20459;-68
2023/05/05 01:30:45;;;;;;;7.30;6.80;;;15.10;99.90;;;;;;4972894;28;20415;-69
2023/05/05 01:33:16;;;;;;;9.60;8.77;;;15.00;99.90;;;;;;4973074;28;21033;-68
2023/05/05 01:35:49;;;;;;;9.67;8.70;;;14.90;99.90;;;;;;4972982;28;20522;-68
2023/05/05 01:38:18;;;;;;;8.60;7.70;;;14.90;99.90;;;;;;4972679;28;20419;-69
2023/05/05 01:41:02;;;;;;;7.60;7.00;;;14.90;99.90;;;;;;4972981;28;20428;-68
2023/05/05 01:43:32;;;;;;;7.60;6.90;;;14.90;99.90;;;;;;4972877;28;20944;-69
2023/05/05 01:45:59;;;;;;;7.10;6.60;;;14.90;99.90;;;;;;4972717;28;20463;-69
2023/05/05 01:48:25;;;;;;;7.77;7.17;;;15.00;99.90;;;;;;4972759;28;20420;-69
2023/05/05 01:50:52;;;;;;;7.97;7.33;;;15.00;99.90;;;;;;4972915;28;20992;-69
2023/05/05 01:53:20;;;;;;;7.47;6.77;;;15.10;99.90;;;;;;4972785;28;20200;-70
2023/05/05 01:55:47;;;;;;;12.63;7.47;;;15.10;99.90;;;;;;4972653;28;20444;-68
2023/05/05 01:58:14;;;;;;;8.17;7.57;;;15.00;99.90;;;;;;4972614;28;20943;-72
2023/05/05 02:00:41;;;;;;;8.07;7.37;;;15.00;99.90;;;;;;4972888;28;20549;-69
2023/05/05 02:03:09;;;;;;;8.43;7.73;;;15.00;99.90;;;;;;4975623;28;20613;-69
2023/05/05 02:05:37;;;;;;;8.47;7.73;;;15.00;99.90;;;;;;4976213;28;20444;-68
2023/05/05 02:08:04;;;;;;;8.43;7.73;;;15.10;99.90;;;;;;4976032;28;20968;-69
2023/05/05 02:10:31;;;;;;;8.63;8.00;;;15.00;99.90;;;;;;4975984;28;20424;-69
2023/05/05 02:12:59;;;;;;;9.10;8.20;;;15.10;99.90;;;;;;4976178;28;20427;-69
2023/05/05 02:15:27;;;;;;;8.17;7.47;;;15.10;99.90;;;;;;4976002;28;20443;-69
2023/05/05 02:17:54;;;;;;;6.97;6.37;;;15.10;99.90;;;;;;4976151;28;20921;-69
2023/05/05 02:20:21;;;;;;;8.87;7.97;;;15.10;99.90;;;;;;4975942;28;20499;-70
2023/05/05 02:22:47;;;;;;;7.67;7.00;;;15.00;99.90;;;;;;4976118;28;20820;-69
2023/05/05 02:25:12;;;;;;;8.97;6.83;;;15.00;99.90;;;;;;4975856;28;20429;-69
2023/05/05 02:27:41;;;;;;;8.27;7.47;;;15.00;99.90;;;;;;4975922;28;20196;-69
2023/05/05 02:30:09;;;;;;;7.47;6.87;;;14.90;99.90;;;;;;4975679;28;20644;-70
2023/05/05 02:32:39;;;;;;;8.20;7.60;;;14.90;99.90;;;;;;4975983;28;20419;-69
2023/05/05 02:35:12;;;;;;;6.97;6.47;;;14.90;99.90;;;;;;4975791;28;20430;-70
2023/05/05 02:37:40;;;;;;;7.00;6.47;;;14.90;99.90;;;;;;4975742;28;20988;-68
2023/05/05 02:40:07;;;;;;;9.27;6.77;;;14.90;99.90;;;;;;4975674;28;20487;-69
2023/05/05 02:42:39;;;;;;;7.33;6.83;;;14.90;99.90;;;;;;4975680;28;20431;-68
2023/05/05 02:45:17;;;;;;;6.60;6.00;;;14.90;99.90;;;;;;4975904;28;20459;-69
2023/05/05 02:47:42;;;;;;;7.30;6.60;;;14.90;99.90;;;;;;4975565;28;20465;-69
2023/05/05 02:50:08;;;;;;;7.50;6.80;;;15.00;99.90;;;;;;4975208;28;20420;-69
2023/05/05 02:52:34;;;;;;;8.17;7.43;;;14.90;99.90;;;;;;4975561;28;20168;-70
2023/05/05 02:55:01;;;;;;;6.87;6.37;;;14.90;99.90;;;;;;4975403;28;20430;-68
2023/05/05 02:57:43;;;;;;;7.50;5.87;;;14.90;99.90;;;;;;4975329;28;20501;-70
2023/05/05 03:00:17;;;;;;;6.93;6.33;;;15.00;99.90;;;;;;4975127;28;20531;-68
2023/05/05 03:02:52;;;;;;;6.70;6.10;;;15.00;99.90;;;;;;4975418;28;20411;-70
2023/05/05 03:05:20;;;;;;;6.77;6.27;;;15.00;99.90;;;;;;4975381;28;20423;-69
2023/05/05 03:07:59;;;;;;;7.40;6.10;;;15.10;99.90;;;;;;4975059;28;20502;-69
2023/05/05 03:10:29;;;;;;;6.37;5.87;;;15.10;99.90;;;;;;4975040;28;20427;-69
2023/05/05 03:12:58;;;;;;;6.40;5.80;;;15.10;99.90;;;;;;4974813;28;20510;-68
2023/05/05 03:15:36;;;;;;;7.03;6.33;;;15.20;99.90;;;;;;4974766;28;20447;-68
2023/05/05 03:18:03;;;;;;;6.37;5.90;;;15.20;99.90;;;;;;4975064;28;20424;-68
2023/05/05 03:20:29;;;;;;;7.07;6.47;;;15.30;99.90;;;;;;4974802;28;20439;-68
2023/05/05 03:22:54;;;;;;;5.90;5.40;;;15.30;99.90;;;;;;4974896;28;20424;-68
2023/05/05 03:25:20;;;;;;;6.40;5.70;;;15.30;99.90;;;;;;4974767;28;20438;-69
2023/05/05 03:27:45;;;;;;;6.20;5.70;;;15.30;99.90;;;;;;4974794;28;20214;-69
2023/05/05 03:30:11;;;;;;;6.13;5.73;;;15.40;99.90;;;;;;4974502;28;20176;-69
2023/05/05 03:32:37;;;;;;;7.00;6.47;;;15.40;99.90;;;;;;4974800;28;20255;-69
2023/05/05 03:35:03;;;;;;;6.77;6.07;;;15.50;99.90;;;;;;4974745;28;20451;-69
2023/05/05 03:37:28;;;;;;;8.60;5.77;;;15.50;99.90;;;;;;4974691;28;20726;-70
2023/05/05 03:39:53;;;;;;;7.97;6.30;;;15.50;99.90;;;;;;4974529;28;20172;-69
2023/05/05 03:42:19;;;;;;;6.57;6.10;;;15.50;99.90;;;;;;4974510;28;20242;-68
2023/05/05 03:44:45;;;;;;;5.97;5.53;;;15.50;99.90;;;;;;4974540;28;20255;-70
2023/05/05 03:47:10;;;;;;;5.90;5.40;;;15.50;99.90;;;;;;4974411;28;20237;-68
2023/05/05 03:49:36;;;;;;;8.50;7.77;;;15.50;99.90;;;;;;4974236;28;20176;-69
2023/05/05 03:52:02;;;;;;;6.73;6.13;;;15.50;99.90;;;;;;4974374;28;20251;-69
2023/05/05 03:54:27;;;;;;;7.57;6.00;;;15.50;99.90;;;;;;4974222;28;20506;-70
2023/05/05 03:56:54;;;;;;;5.43;5.03;;;15.50;99.90;;;;;;4974281;28;20207;-69
2023/05/05 03:59:20;;;;;;;5.70;5.30;;;15.50;99.90;;;;;;4974022;28;20562;-70
2023/05/05 04:01:47;;;;;;;5.80;5.10;;;15.50;99.90;;;;;;4974401;28;20428;-68
2023/05/05 04:04:13;;;;;;;6.33;5.63;;;15.50;99.90;;;;;;4974164;28;20580;-69
2023/05/05 04:06:38;;;;;;;8.63;6.00;;;15.50;99.90;;;;;;4973913;28;20510;-68
2023/05/05 04:09:04;;;;;;;5.30;4.83;;;15.40;99.90;;;;;;4973811;28;20219;-68
2023/05/05 04:11:30;;;;;;;6.37;5.77;;;15.50;99.90;;;;;;4974033;28;20200;-69
2023/05/05 04:13:55;;;;;;;6.97;6.10;;;15.50;99.90;;;;;;4973935;28;20834;-69
2023/05/05 04:16:21;;;;;;;5.87;5.37;;;15.60;99.90;;;;;;4973839;28;20258;-68
2023/05/05 04:18:47;;;;;;;6.10;5.50;;;15.60;99.90;;;;;;4973748;28;20176;-69
2023/05/05 04:21:12;;;;;;;6.70;6.00;;;15.70;99.90;;;;;;4973862;28;20630;-69
2023/05/05 04:23:38;;;;;;;5.83;5.37;;;15.80;99.90;;;;;;4973765;28;20171;-69
2023/05/05 04:26:03;;;;;;;5.67;5.13;;;15.80;99.90;;;;;;4973050;28;20204;-69
2023/05/05 04:28:29;;;;;;;6.33;5.83;;;15.90;99.90;;;;;;4973722;28;20175;-68
2023/05/05 04:30:54;;;;;;;6.03;5.53;;;15.90;99.90;;;;;;4973703;28;20184;-68
2023/05/05 04:33:20;;;;;;;6.13;5.63;;;15.90;99.90;;;;;;4973751;28;20252;-69
2023/05/05 04:35:45;;;;;;;7.30;6.70;;;16.00;99.90;;;;;;4973485;28;20216;-68
2023/05/05 04:38:11;;;;;;;6.57;6.00;;;16.00;99.90;;;;;;4973383;28;20594;-69
2023/05/05 04:40:42;;;;;;;7.30;6.70;;;16.00;99.90;;;;;;4973390;28;20271;-68
2023/05/05 04:43:08;;;;;;;6.53;5.93;;;16.10;99.90;;;;;;4973641;28;20676;-69
2023/05/05 04:45:34;;;;;;;7.23;6.73;;;16.20;99.90;;;;;;4973459;28;20447;-68
2023/05/05 04:47:59;;;;;;;6.83;5.63;;;16.30;99.90;;;;;;4973462;28;20200;-69
2023/05/05 04:50:24;;;;;;;6.03;5.40;;;16.40;99.90;;;;;;4973104;28;20200;-69
2023/05/05 04:52:50;;;;;;;7.17;6.53;;;16.40;99.90;;;;;;4973322;28;20183;-68
2023/05/05 04:55:16;;;;;;;9.77;7.73;;;16.50;99.90;;;;;;4973270;28;20227;-68
2023/05/05 04:57:41;;;;;;;6.80;6.10;;;16.50;99.90;;;;;;4973350;28;20547;-68
2023/05/05 05:00:08;;;;;;;7.63;7.03;;;16.60;99.90;;;;;;4973172;28;20638;-68
2023/05/05 05:02:34;;;;;;;9.20;6.70;;;16.50;99.90;;;;;;4973225;28;20169;-69
2023/05/05 05:05:00;;;;;;;7.77;6.67;;;16.60;99.90;;;;;;4973197;28;20419;-69
2023/05/05 05:07:25;;;;;;;7.50;5.97;;;16.60;99.90;;;;;;4973049;28;21051;-69
2023/05/05 05:09:51;;;;;;;6.90;6.30;;;16.60;99.90;;;;;;4972947;28;20176;-69
2023/05/05 05:12:16;;;;;;;7.27;6.63;;;16.70;99.90;;;;;;4973261;28;20176;-69
2023/05/05 05:14:42;;;;;;;7.47;6.97;;;16.70;99.90;;;;;;4973281;28;20179;-68
2023/05/05 05:17:07;;;;;;;6.23;5.73;;;16.80;99.90;;;;;;4973469;28;20215;-71
2023/05/05 05:19:33;;;;;;;5.83;5.23;;;16.70;99.90;;;;;;4972831;28;20180;-71
2023/05/05 05:21:58;;;;;;;5.93;5.33;;;16.70;99.90;;;;;;4973085;28;20194;-71
2023/05/05 05:24:24;;;;;;;6.10;5.60;;;16.70;99.90;;;;;;4973001;28;20180;-71
2023/05/05 05:26:50;;;;;;;5.20;4.80;;;16.70;99.90;;;;;;4972860;28;20291;-70
2023/05/05 05:29:16;;;;;;;6.27;5.63;;;16.80;99.90;;;;;;4972887;28;20263;-70
2023/05/05 05:31:41;;;;;;;11.23;7.53;;;16.90;99.90;;;;;;4973035;28;20506;-71
2023/05/05 05:34:07;;;;;;;7.23;6.70;;;17.10;99.90;;;;;;4972952;28;20663;-71
2023/05/05 05:36:32;;;;;;;10.13;6.40;;;17.30;99.90;;;;;;4974935;28;20204;-70
2023/05/05 05:38:58;;;;;;;11.90;10.40;;;17.50;99.90;;;;;;4976527;28;20255;-71
2023/05/05 05:41:23;;;;;;;11.20;7.80;;;17.70;99.90;;;;;;4976948;28;20423;-72
2023/05/05 05:43:49;;;;;;;8.30;7.53;;;17.90;99.90;;;;;;4976659;28;20180;-70
2023/05/05 05:46:15;;;;;;;7.17;6.40;;;18.00;99.90;;;;;;4976496;28;20201;-71
2023/05/05 05:48:40;;;;;;;5.60;5.00;;;18.10;99.90;;;;;;4976327;28;20239;-70
2023/05/05 05:51:06;;;;;;;7.40;6.47;;;18.30;99.90;;;;;;4976497;28;20709;-70
2023/05/05 05:53:32;;;;;;;5.53;5.03;;;18.50;99.90;;;;;;4976411;28;20184;-71
2023/05/05 05:55:57;;;;;;;5.90;5.40;;;18.80;99.90;;;;;;4976471;28;20195;-71
2023/05/05 05:58:23;;;;;;;5.53;5.07;;;19.00;99.90;;;;;;4976294;28;20423;-71
2023/05/05 06:00:48;;;;;;;5.50;5.10;;;19.10;99.90;;;;;;4976406;28;20168;-70
2023/05/05 06:03:14;;;;;;;5.80;5.27;;;19.00;99.90;;;;;;4976270;28;20180;-70
2023/05/05 06:05:40;;;;;;;5.63;5.03;;;18.80;99.90;;;;;;4976075;28;20184;-71
2023/05/05 06:08:05;;;;;;;5.00;4.37;;;18.90;99.90;;;;;;4975944;28;20196;-70
2023/05/05 06:10:31;;;;;;;10.27;4.73;;;18.90;99.90;;;;;;4976041;28;20743;-70
2023/05/05 06:12:57;;;;;;;4.17;3.87;;;18.80;99.90;;;;;;4976019;28;20231;-70
2023/05/05 06:15:22;;;;;;;4.60;4.20;;;18.80;99.90;;;;;;4975806;28;20279;-71
2023/05/05 06:17:48;;;;;;;5.20;4.80;;;18.80;99.90;;;;;;4976188;28;20184;-70
2023/05/05 06:20:13;;;;;;;4.70;4.37;;;18.80;99.90;;;;;;4975656;28;20269;-70
2023/05/05 06:22:39;;;;;;;4.33;3.93;;;18.80;99.90;;;;;;4975836;28;20180;-70
2023/05/05 06:25:05;;;;;;;5.30;4.60;;;18.80;99.90;;;;;;4976236;28;20188;-70
2023/05/05 06:27:30;;;;;;;6.17;4.00;;;18.80;99.90;;;;;;4975928;28;20745;-70
2023/05/05 06:29:56;;;;;;;6.53;5.93;;;18.80;99.90;;;;;;4975509;28;20968;-70
2023/05/05 06:32:21;;;;;;;5.43;4.93;;;18.90;99.90;;;;;;4969988;28;20208;-70
2023/05/05 06:34:47;;;;;;;5.00;4.00;;;19.00;99.90;;;;;;4972721;28;20189;-70
2023/05/05 06:37:13;;;;;;;4.77;4.37;;;19.10;99.90;;;;;;4965063;28;20192;-70
2023/05/05 06:39:39;;;;;;;4.53;4.00;;;19.20;99.90;;;;;;4966147;28;20479;-70
2023/05/05 06:42:04;;;;;;;5.90;5.00;;;19.30;99.90;;;;;;4975594;28;20600;-70
2023/05/05 06:44:30;;;;;;;4.70;4.40;;;19.40;99.90;;;;;;4984689;28;20214;-71
2023/05/05 06:46:55;;;;;;;4.93;4.03;;;19.50;99.90;;;;;;4978042;28;20577;-70
2023/05/05 06:49:21;;;;;;;4.33;4.03;;;19.60;99.90;;;;;;4956239;28;20661;-70
2023/05/05 06:51:47;;;;;;;7.87;4.53;;;19.60;99.90;;;;;;4974934;28;20195;-71
2023/05/05 06:54:12;;;;;;;4.90;4.50;;;19.50;99.90;;;;;;4975301;28;20177;-70
2023/05/05 06:56:38;;;;;;;5.10;4.10;;;19.60;99.90;;;;;;4989108;28;20450;-71
2023/05/05 06:59:03;;;;;;;4.93;4.00;;;19.60;99.90;;;;;;4994517;28;20233;-70
2023/05/05 07:01:29;;;;;;;4.73;4.43;;;19.70;99.90;;;;;;4994683;28;20183;-71
2023/05/05 07:03:55;;;;;;;4.17;3.87;;;19.60;99.90;;;;;;4994588;28;20637;-70
2023/05/05 07:06:20;;;;;;;4.93;4.53;;;19.50;99.90;;;;;;4994278;28;20203;-70
2023/05/05 07:08:46;;;;;;;4.70;4.30;;;19.30;99.90;;;;;;4980756;28;20172;-71
2023/05/05 07:11:11;;;;;;;5.80;4.57;;;19.40;99.90;;;;;;4974981;28;20177;-71
2023/05/05 07:13:37;;;;;;;6.03;4.90;;;19.40;99.90;;;;;;4975217;28;20212;-70
2023/05/05 07:16:02;;;;;;;4.93;4.43;;;19.30;99.90;;;;;;4974719;28;20210;-71
2023/05/05 07:18:28;;;;;;;4.30;3.73;;;19.30;99.90;;;;;;4974600;28;20664;-70
2023/05/05 07:20:53;;;;;;;6.07;4.20;;;19.40;99.90;;;;;;4971604;28;20177;-70
2023/05/05 07:23:19;;;;;;;4.90;4.37;;;19.50;99.90;;;;;;4984954;28;20176;-71
2023/05/05 07:25:44;;;;;;;4.47;4.00;;;19.50;99.90;;;;;;4994342;28;20195;-71
2023/05/05 07:28:10;;;;;;;5.57;4.40;;;19.60;99.90;;;;;;4993871;28;20206;-70
2023/05/05 07:30:35;;;;;;;4.17;3.87;;;19.60;99.90;;;;;;4994229;28;20195;-71
2023/05/05 07:33:01;;;;;;;5.23;4.00;;;19.50;99.90;;;;;;4994218;28;20688;-71
2023/05/05 07:35:27;;;;;;;5.37;4.97;;;19.50;99.90;;;;;;4994052;28;20283;-71
2023/05/05 07:37:53;;;;;;;4.67;4.37;;;19.60;99.90;;;;;;4993955;28;20191;-71
2023/05/05 07:40:18;;;;;;;6.40;4.20;;;19.70;99.90;;;;;;4993876;28;20251;-71
2023/05/05 07:42:46;;;;;;;4.60;4.20;;;19.70;99.90;;;;;;4994074;28;20485;-70
2023/05/05 07:45:11;;;;;;;4.70;4.00;;;19.50;99.90;;;;;;4981079;28;20183;-71
2023/05/05 07:47:37;;;;;;;4.77;4.37;;;19.20;99.90;;;;;;4974528;28;20447;-71
2023/05/05 07:50:03;;;;;;;5.73;4.47;;;19.00;99.90;;;;;;4974092;28;20231;-71
2023/05/05 07:52:28;;;;;;;5.90;4.00;;;18.80;99.90;;;;;;4974620;28;20251;-71
2023/05/05 07:54:54;;;;;;;7.07;4.10;;;18.70;99.90;;;;;;4974390;28;20176;-73
2023/05/05 07:57:19;;;;;;;4.27;3.97;;;18.70;99.90;;;;;;4974364;28;20204;-71
2023/05/05 07:59:45;;;;;;;4.93;4.53;;;18.60;99.90;;;;;;4973067;28;20187;-71
2023/05/05 08:02:11;;;;;;;5.50;4.17;;;18.50;99.90;;;;;;4974024;28;20184;-71
2023/05/05 08:04:40;;;;;;;5.50;5.00;;;18.40;99.90;;;;;;4974064;28;20274;-71
2023/05/05 08:07:07;;;;;;;4.90;4.47;;;18.30;99.90;;;;;;4974052;28;20622;-71
2023/05/05 08:09:33;;;;;;;10.77;6.00;;;18.20;99.90;;;;;;4973814;28;20483;-71
2023/05/05 08:12:00;;;;;;;11.03;5.43;;;18.20;99.90;;;;;;4973998;28;20522;-71
2023/05/05 08:14:25;;;;;;;6.47;5.13;;;18.10;99.90;;;;;;4973857;28;20427;-71
2023/05/05 08:16:51;;;;;;;4.80;4.40;;;18.20;99.90;;;;;;4973578;28;20538;-71
2023/05/05 08:19:16;;;;;;;6.57;5.47;;;18.40;99.90;;;;;;4973460;28;20235;-71
2023/05/05 08:21:42;;;;;;;5.40;4.90;;;18.50;99.90;;;;;;4973729;28;20642;-71
2023/05/05 08:24:07;;;;;;;5.80;5.33;;;18.50;99.90;;;;;;4973739;28;20219;-70
2023/05/05 08:26:33;;;;;;;6.23;5.73;;;18.30;99.90;;;;;;4973706;28;20720;-71
2023/05/05 08:29:00;;;;;;;6.27;5.63;;;18.30;99.90;;;;;;4972435;28;20219;-71
2023/05/05 08:31:31;;;;;;;9.90;9.10;;;18.20;99.90;;;;;;4973528;28;20180;-70
2023/05/05 08:33:57;;;;;;;11.17;10.07;;;18.20;99.90;;;;;;4973641;28;20766;-71
2023/05/05 08:36:22;;;;;;;5.60;5.20;;;18.30;99.90;;;;;;4973575;28;20452;-70
2023/05/05 08:38:48;;;;;;;5.87;5.13;;;18.30;99.90;;;;;;4973240;28;20187;-71
2023/05/05 08:41:16;;;;;;;4.67;4.30;;;18.30;99.90;;;;;;4973522;28;20267;-71
2023/05/05 08:43:43;;;;;;;5.13;4.63;;;18.40;99.90;;;;;;4973589;28;20263;-71
2023/05/05 08:46:11;;;;;;;4.90;4.50;;;18.40;99.90;;;;;;4973177;28;20956;-70
2023/05/05 08:48:40;;;;;;;5.07;4.70;;;18.50;99.90;;;;;;4973187;28;20419;-71
2023/05/05 08:51:07;;;;;;;4.30;4.00;;;18.50;99.90;;;;;;4973544;28;20822;-71
2023/05/05 08:53:47;;;;;;;5.30;4.80;;;18.50;99.90;;;;;;4973501;28;20427;-70
2023/05/05 08:56:14;;;;;;;5.03;4.60;;;18.50;99.90;;;;;;4973358;28;20431;-70
2023/05/05 08:58:41;;;;;;;4.87;4.47;;;18.50;99.90;;;;;;4973072;28;20416;-71
2023/05/05 09:01:07;;;;;;;4.80;4.50;;;18.50;99.90;;;;;;4973141;28;20437;-70
2023/05/05 09:03:34;;;;;;;4.33;4.00;;;18.50;99.90;;;;;;4973407;28;20806;-70
2023/05/05 09:06:00;;;;;;;6.30;5.40;;;18.50;99.90;;;;;;4973296;28;20195;-71
2023/05/05 09:08:27;;;;;;;5.50;5.10;;;18.60;99.90;;;;;;4972744;28;20459;-70
2023/05/05 09:10:54;;;;;;;6.60;4.30;;;18.70;99.90;;;;;;4975479;28;20423;-70
2023/05/05 09:13:19;;;;;;;7.50;5.30;;;18.70;99.90;;;;;;4979588;28;20942;-70
2023/05/05 09:15:45;;;;;;;5.37;4.97;;;18.80;99.90;;;;;;4979388;28;20449;-71
2023/05/05 09:18:11;;;;;;;6.00;5.37;;;19.00;99.90;;;;;;4979386;28;20251;-70
2023/05/05 09:20:38;;;;;;;6.53;5.63;;;19.10;99.90;;;;;;4979125;28;20180;-71
2023/05/05 09:23:15;;;;;;;6.30;5.80;;;19.20;99.90;;;;;;4979552;28;20787;-71
2023/05/05 09:25:42;;;;;;;5.57;5.07;;;19.30;99.90;;;;;;4979532;28;20446;-70
2023/05/05 09:28:14;;;;;;;5.03;4.63;;;19.60;99.90;;;;;;4972823;28;20545;-70
2023/05/05 09:30:41;;;;;;;5.03;4.53;;;19.90;99.90;;;;;;4980020;28;20430;-71
2023/05/05 09:33:07;;;;;;;6.97;5.20;;;20.10;99.90;;;;;;4979530;28;20443;-71
2023/05/05 09:35:53;;;;;;;4.80;4.50;;;20.20;99.90;;;;;;4958698;28;20985;-71
2023/05/05 09:38:20;;;;;;;5.90;5.23;;;20.20;99.90;;;;;;4959575;28;20175;-71
2023/05/05 09:40:47;;;;;;;5.60;5.10;;;20.40;99.90;;;;;;4959950;28;20486;-71
2023/05/05 09:43:14;;;;;;;5.07;4.63;;;20.60;99.90;;;;;;4960131;28;20435;-71
2023/05/05 09:45:39;;;;;;;5.43;5.03;;;21.30;99.90;;;;;;4965669;28;20447;-70
2023/05/05 09:48:05;;;;;;;7.50;4.70;;;22.00;99.90;;;;;;4998503;28;20620;-70
2023/05/05 09:50:44;;;;;;;4.50;4.10;;;22.20;99.90;;;;;;4998542;28;20178;-71
2023/05/05 09:53:10;;;;;;;3.73;3.40;;;22.10;99.90;;;;;;4998564;28;20450;-71
2023/05/05 09:55:36;;;;;;;4.60;4.20;;;22.30;99.90;;;;;;4998553;28;20434;-71
2023/05/05 09:58:18;;;;;;;4.10;3.80;;;22.80;99.90;;;;;;4996598;28;20421;-71
2023/05/05 10:00:44;;;;;;;6.43;3.20;;;23.20;99.90;;;;;;4977629;28;20432;-71
2023/05/05 10:03:10;;;;;;;4.10;3.30;;;23.70;99.90;;;;;;4976684;28;20472;-71
2023/05/05 10:05:47;;;;;;;3.33;3.13;;;24.20;99.90;;;;;;4977451;28;20494;-71
2023/05/05 10:08:13;;;;;;;3.77;2.40;;;24.20;99.90;;;;;;4973941;28;20226;-71
2023/05/05 10:11:05;;;;;;;3.10;2.70;;;23.70;99.90;;;;;;4959336;29;20416;-71
2023/05/05 10:13:36;;;;;;;5.70;4.40;;;23.50;99.90;;;;;;4959754;28;20173;-71
2023/05/05 10:16:03;;;;;;;4.30;3.50;;;23.40;99.90;;;;;;4959078;29;20509;-70
2023/05/05 10:18:30;;;;;;;5.50;5.00;;;23.40;99.90;;;;;;4961887;28;20514;-71
2023/05/05 10:21:00;;;;;;;3.57;3.30;;;23.10;99.90;;;;;;4959550;28;20429;-68
2023/05/05 10:23:41;;;;;;;2.97;2.70;;;23.10;99.90;;;;;;4982441;28;20748;-68
2023/05/05 10:26:12;;;;;;;3.73;3.43;;;22.90;99.90;;;;;;4995340;28;20769;-68
2023/05/05 10:28:49;;;;;;;3.00;2.80;;;22.60;99.90;;;;;;4994908;28;20917;-68
2023/05/05 10:31:32;;;;;;;2.60;2.40;;;22.60;99.90;;;;;;4995144;28;20422;-69
2023/05/05 10:34:19;;;;;;;2.93;2.73;;;22.70;99.90;;;;;;4989150;28;20479;-69
2023/05/05 10:36:45;;;;;;;4.30;2.53;;;22.80;99.90;;;;;;4956280;28;20463;-70
2023/05/05 10:39:13;;;;;;;2.83;2.53;;;22.60;99.90;;;;;;4956115;28;20463;-70
2023/05/05 10:41:40;;;;;;;4.40;2.53;;;22.30;99.90;;;;;;4956264;28;20433;-70
2023/05/05 10:44:06;;;;;;;3.10;2.80;;;22.20;99.90;;;;;;4956021;29;20471;-69
2023/05/05 10:46:31;;;;;;;3.17;2.77;;;22.00;99.90;;;;;;4958371;28;20492;-69
2023/05/05 10:49:22;;;;;;;3.50;3.00;;;22.00;99.90;;;;;;4973026;28;20185;-70
2023/05/05 10:52:03;;;;;;;3.80;2.53;;;21.90;99.90;;;;;;4975130;28;20164;-70
2023/05/05 10:54:33;;;;;;;3.53;2.60;;;21.80;99.90;;;;;;4975106;28;20419;-70
2023/05/05 10:57:01;;;;;;;3.30;3.00;;;21.80;99.90;;;;;;4974166;28;20446;-70
2023/05/05 10:59:36;;;;;;;3.67;2.70;;;21.60;99.90;;;;;;4974881;28;20578;-70
2023/05/05 11:02:22;;;;;;;3.60;3.30;;;21.60;99.90;;;;;;4975067;28;20426;-69
2023/05/05 11:05:06;;;;;;;3.23;2.90;;;21.40;99.90;;;;;;4975008;28;20423;-70
2023/05/05 11:07:33;;;;;;;3.60;3.30;;;21.30;99.90;;;;;;4974756;28;20467;-70
2023/05/05 11:10:06;;;;;;;3.80;3.50;;;21.30;99.90;;;;;;4974821;28;20451;-70
2023/05/05 11:12:56;;;;;;;3.77;3.20;;;21.50;99.90;;;;;;4972088;28;20427;-70
2023/05/05 11:15:34;;;;;;;9.70;3.20;;;21.70;99.90;;;;;;4963019;28;20458;-70
2023/05/05 11:18:01;;;;;;;3.30;3.00;;;21.90;99.90;;;;;;4956072;28;20459;-69
2023/05/05 11:20:35;;;;;;;7.33;3.57;;;22.20;99.90;;;;;;4955487;28;20483;-69
2023/05/05 11:23:01;;;;;;;8.20;3.43;;;22.80;99.90;;;;;;4974781;28;21123;-69
2023/05/05 11:25:45;;;;;;;5.03;2.97;;;23.40;99.90;;;;;;4994095;28;20550;-70
2023/05/05 11:28:13;;;;;;;3.80;2.83;;;24.00;99.90;;;;;;4993852;28;20203;-69
2023/05/05 11:30:54;;;;;;;3.07;2.87;;;24.70;99.90;;;;;;4994124;28;20425;-69
2023/05/05 11:33:24;;;;;;;2.83;2.60;;;25.70;99.90;;;;;;4994060;28;20423;-70
2023/05/05 11:36:00;;;;;;;3.50;3.00;;;26.60;99.30;;;;;;4994006;28;20570;-70
2023/05/05 11:38:49;;;;;;;4.00;3.60;;;27.20;96.50;;;;;;4976971;28;20846;-69
2023/05/05 11:41:31;;;;;;;3.47;3.10;;;27.30;95.20;;;;;;4955035;28;20937;-70
2023/05/05 11:44:11;;;;;;;2.63;2.43;;;27.80;93.70;;;;;;4960135;28;20443;-70
2023/05/05 11:47:03;;;;;;;2.90;2.70;;;28.90;91.10;;;;;;4973671;28;21138;-70
2023/05/05 11:49:33;;;;;;;3.97;2.77;;;29.60;86.90;;;;;;4972785;28;20420;-69
2023/05/05 11:52:08;;;;;;;3.70;2.30;;;29.30;80.60;;;;;;4971350;28;20797;-70
2023/05/05 11:54:39;;;;;;;3.80;3.00;;;29.90;81.90;;;;;;4974313;28;20412;-70
2023/05/05 11:57:06;;;;;;;4.00;2.80;;;30.50;78.70;;;;;;4974265;28;20479;-69
2023/05/05 11:59:48;;;;;;;2.77;2.57;;;30.60;74.30;;;;;;4973731;28;20432;-69
2023/05/05 12:02:18;;;;;;;7.47;2.70;;;30.10;72.90;;;;;;4974158;28;20424;-69
2023/05/05 12:04:44;;;;;;;2.97;2.67;;;30.20;70.60;;;;;;4970862;28;20809;-69
2023/05/05 12:07:14;;;;;;;3.27;2.53;;;29.90;68.70;;;;;;4973498;28;20462;-70
2023/05/05 12:09:43;;;;;;;3.27;2.47;;;29.20;72.40;;;;;;4973509;28;20419;-69
2023/05/05 12:12:08;;;;;;;3.07;2.50;;;29.10;71.90;;;;;;4973964;28;20430;-70
2023/05/05 12:14:34;;;;;;;3.50;2.70;;;28.40;72.70;;;;;;4972790;28;20419;-68
2023/05/05 12:17:06;;;;;;;4.40;2.20;;;28.10;74.50;;;;;;4973664;28;20267;-69
2023/05/05 12:19:32;;;;;;;4.80;2.73;;;27.70;74.40;;;;;;4973382;28;20192;-70
2023/05/05 12:22:03;;;;;;;2.97;2.63;;;27.90;74.10;;;;;;4973416;28;20432;-69
2023/05/05 12:24:31;;;;;;;2.30;2.13;;;28.10;74.00;;;;;;4973542;28;20567;-70
2023/05/05 12:27:07;;;;;;;3.07;2.43;;;26.70;75.20;;;;;;4972131;28;20525;-69
2023/05/05 12:29:32;;;;;;;3.80;3.33;;;26.30;76.30;;;;;;4972506;28;20423;-69
2023/05/05 12:31:59;;;;;;;4.10;2.97;;;25.90;79.80;;;;;;4973506;28;20435;-69
2023/05/05 12:34:25;;;;;;;5.00;2.83;;;25.50;80.50;;;;;;4971449;28;20234;-69
2023/05/05 12:36:51;;;;;;;4.17;2.93;;;25.40;82.90;;;;;;4966920;28;20447;-68
2023/05/05 12:39:16;;;;;;;2.70;2.50;;;25.00;85.90;;;;;;4962458;28;20503;-69
2023/05/05 12:41:42;;;;;;;3.40;3.10;;;24.70;90.10;;;;;;4954161;28;20471;-68
2023/05/05 12:44:08;;;;;;;3.40;3.10;;;24.60;89.70;;;;;;4954187;28;20184;-70
2023/05/05 12:46:46;;;;;;;3.27;2.60;;;25.40;88.80;;;;;;4953408;28;20216;-68
2023/05/05 12:49:12;;;;;;;2.47;2.27;;;26.70;83.60;;;;;;4953974;28;20177;-69
2023/05/05 12:51:38;;;;;;;3.13;2.67;;;27.40;80.20;;;;;;4953923;28;20855;-69